sensor_id;sensor_type;location;lat;lon;timestamp;pressure;altitude;pressure_sealevel;temperature
15079;BMP180;6932;51.438;5.470;2024-03-06T00:02:06;101306.00;;;13.90
15079;BMP180;6932;51.438;5.470;2024-03-06T00:04:32;101305.00;;;13.80
15079;BMP180;6932;51.438;5.470;2024-03-06T00:06:57;101312.00;;;13.80
15079;BMP180;6932;51.438;5.470;2024-03-06T00:09:24;101309.00;;;13.80
15079;BMP180;6932;51.438;5.470;2024-03-06T00:11:53;101320.00;;;13.80
15079;BMP180;6932;51.438;5.470;2024-03-06T00:14:19;101319.00;;;13.80
15079;BMP180;6932;51.438;5.470;2024-03-06T00:16:47;101327.00;;;13.70
15079;BMP180;6932;51.438;5.470;2024-03-06T00:19:19;101323.00;;;13.70
15079;BMP180;6932;51.438;5.470;2024-03-06T00:21:45;101324.00;;;13.70
15079;BMP180;6932;51.438;5.470;2024-03-06T00:24:14;101328.00;;;13.70
15079;BMP180;6932;51.438;5.470;2024-03-06T00:26:44;101330.00;;;13.70
15079;BMP180;6932;51.438;5.470;2024-03-06T00:29:11;101338.00;;;13.60
15079;BMP180;6932;51.438;5.470;2024-03-06T00:31:42;101338.00;;;13.60
15079;BMP180;6932;51.438;5.470;2024-03-06T00:34:09;101338.00;;;13.60
15079;BMP180;6932;51.438;5.470;2024-03-06T00:36:35;101342.00;;;13.60
15079;BMP180;6932;51.438;5.470;2024-03-06T00:39:01;101335.00;;;13.60
15079;BMP180;6932;51.438;5.470;2024-03-06T00:41:30;101342.00;;;13.50
15079;BMP180;6932;51.438;5.470;2024-03-06T00:43:56;101338.00;;;13.50
15079;BMP180;6932;51.438;5.470;2024-03-06T00:46:22;101339.00;;;13.50
15079;BMP180;6932;51.438;5.470;2024-03-06T00:48:48;101340.00;;;13.40
15079;BMP180;6932;51.438;5.470;2024-03-06T00:51:14;101342.00;;;13.40
15079;BMP180;6932;51.438;5.470;2024-03-06T00:53:40;101338.00;;;13.40
15079;BMP180;6932;51.438;5.470;2024-03-06T00:56:06;101334.00;;;13.40
15079;BMP180;6932;51.438;5.470;2024-03-06T00:58:32;101340.00;;;13.30
15079;BMP180;6932;51.438;5.470;2024-03-06T01:00:58;101340.00;;;13.30
15079;BMP180;6932;51.438;5.470;2024-03-06T01:03:24;101340.00;;;13.30
15079;BMP180;6932;51.438;5.470;2024-03-06T01:05:51;101349.00;;;13.30
15079;BMP180;6932;51.438;5.470;2024-03-06T01:08:19;101346.00;;;13.30
15079;BMP180;6932;51.438;5.470;2024-03-06T01:10:45;101351.00;;;13.30
15079;BMP180;6932;51.438;5.470;2024-03-06T01:13:11;101360.00;;;13.20
15079;BMP180;6932;51.438;5.470;2024-03-06T01:15:38;101355.00;;;13.20
15079;BMP180;6932;51.438;5.470;2024-03-06T01:18:04;101356.00;;;13.20
15079;BMP180;6932;51.438;5.470;2024-03-06T01:20:30;101365.00;;;13.20
15079;BMP180;6932;51.438;5.470;2024-03-06T01:22:55;101360.00;;;13.20
15079;BMP180;6932;51.438;5.470;2024-03-06T01:25:21;101355.00;;;13.20
15079;BMP180;6932;51.438;5.470;2024-03-06T01:27:50;101356.00;;;13.20
15079;BMP180;6932;51.438;5.470;2024-03-06T01:30:16;101356.00;;;13.10
15079;BMP180;6932;51.438;5.470;2024-03-06T01:32:41;101362.00;;;13.10
15079;BMP180;6932;51.438;5.470;2024-03-06T01:35:07;101368.00;;;13.10
15079;BMP180;6932;51.438;5.470;2024-03-06T01:37:33;101371.00;;;13.10
15079;BMP180;6932;51.438;5.470;2024-03-06T01:39:58;101370.00;;;13.10
15079;BMP180;6932;51.438;5.470;2024-03-06T01:42:24;101371.00;;;13.10
15079;BMP180;6932;51.438;5.470;2024-03-06T01:44:50;101371.00;;;13.10
15079;BMP180;6932;51.438;5.470;2024-03-06T01:47:16;101361.00;;;13.10
15079;BMP180;6932;51.438;5.470;2024-03-06T01:49:42;101369.00;;;13.10
15079;BMP180;6932;51.438;5.470;2024-03-06T01:52:12;101369.00;;;13.00
15079;BMP180;6932;51.438;5.470;2024-03-06T01:54:39;101372.00;;;13.10
15079;BMP180;6932;51.438;5.470;2024-03-06T01:57:07;101371.00;;;13.10
15079;BMP180;6932;51.438;5.470;2024-03-06T01:59:34;101372.00;;;13.10
15079;BMP180;6932;51.438;5.470;2024-03-06T02:02:00;101373.00;;;13.10
15079;BMP180;6932;51.438;5.470;2024-03-06T02:04:29;101382.00;;;13.10
15079;BMP180;6932;51.438;5.470;2024-03-06T02:06:56;101389.00;;;13.10
15079;BMP180;6932;51.438;5.470;2024-03-06T02:09:23;101392.00;;;13.10
15079;BMP180;6932;51.438;5.470;2024-03-06T02:11:49;101398.00;;;13.00
15079;BMP180;6932;51.438;5.470;2024-03-06T02:14:16;101413.00;;;13.00
15079;BMP180;6932;51.438;5.470;2024-03-06T02:16:42;101409.00;;;13.00
15079;BMP180;6932;51.438;5.470;2024-03-06T02:19:08;101403.00;;;13.00
15079;BMP180;6932;51.438;5.470;2024-03-06T02:21:34;101408.00;;;13.00
15079;BMP180;6932;51.438;5.470;2024-03-06T02:24:00;101408.00;;;12.90
15079;BMP180;6932;51.438;5.470;2024-03-06T02:26:26;101406.00;;;12.90
15079;BMP180;6932;51.438;5.470;2024-03-06T02:28:54;101410.00;;;12.90
15079;BMP180;6932;51.438;5.470;2024-03-06T02:31:21;101409.00;;;12.80
15079;BMP180;6932;51.438;5.470;2024-03-06T02:33:48;101413.00;;;12.80
15079;BMP180;6932;51.438;5.470;2024-03-06T02:36:18;101413.00;;;12.80
15079;BMP180;6932;51.438;5.470;2024-03-06T02:38:45;101417.00;;;12.80
15079;BMP180;6932;51.438;5.470;2024-03-06T02:41:11;101418.00;;;12.80
15079;BMP180;6932;51.438;5.470;2024-03-06T02:43:39;101416.00;;;12.80
15079;BMP180;6932;51.438;5.470;2024-03-06T02:46:05;101407.00;;;12.70
15079;BMP180;6932;51.438;5.470;2024-03-06T02:48:31;101409.00;;;12.70
15079;BMP180;6932;51.438;5.470;2024-03-06T02:50:58;101408.00;;;12.70
15079;BMP180;6932;51.438;5.470;2024-03-06T02:53:24;101403.00;;;12.70
15079;BMP180;6932;51.438;5.470;2024-03-06T02:55:51;101406.00;;;12.70
15079;BMP180;6932;51.438;5.470;2024-03-06T02:58:16;101403.00;;;12.70
15079;BMP180;6932;51.438;5.470;2024-03-06T03:00:43;101410.00;;;12.60
15079;BMP180;6932;51.438;5.470;2024-03-06T03:03:10;101411.00;;;12.60
15079;BMP180;6932;51.438;5.470;2024-03-06T03:05:40;101409.00;;;12.60
15079;BMP180;6932;51.438;5.470;2024-03-06T03:08:09;101402.00;;;12.60
15079;BMP180;6932;51.438;5.470;2024-03-06T03:10:34;101413.00;;;12.60
15079;BMP180;6932;51.438;5.470;2024-03-06T03:13:01;101405.00;;;12.60
15079;BMP180;6932;51.438;5.470;2024-03-06T03:15:27;101404.00;;;12.60
15079;BMP180;6932;51.438;5.470;2024-03-06T03:17:52;101409.00;;;12.60
15079;BMP180;6932;51.438;5.470;2024-03-06T03:20:18;101408.00;;;12.60
15079;BMP180;6932;51.438;5.470;2024-03-06T03:22:44;101409.00;;;12.60
15079;BMP180;6932;51.438;5.470;2024-03-06T03:25:11;101413.00;;;12.60
15079;BMP180;6932;51.438;5.470;2024-03-06T03:27:39;101411.00;;;12.60
15079;BMP180;6932;51.438;5.470;2024-03-06T03:30:10;101406.00;;;12.60
15079;BMP180;6932;51.438;5.470;2024-03-06T03:32:36;101412.00;;;12.60
15079;BMP180;6932;51.438;5.470;2024-03-06T03:35:06;101417.00;;;12.60
15079;BMP180;6932;51.438;5.470;2024-03-06T03:37:33;101418.00;;;12.60
15079;BMP180;6932;51.438;5.470;2024-03-06T03:39:59;101414.00;;;12.60
15079;BMP180;6932;51.438;5.470;2024-03-06T03:42:25;101421.00;;;12.60
15079;BMP180;6932;51.438;5.470;2024-03-06T03:44:50;101418.00;;;12.60
15079;BMP180;6932;51.438;5.470;2024-03-06T03:47:16;101425.00;;;12.60
15079;BMP180;6932;51.438;5.470;2024-03-06T03:49:42;101428.00;;;12.60
15079;BMP180;6932;51.438;5.470;2024-03-06T03:52:08;101419.00;;;12.60
15079;BMP180;6932;51.438;5.470;2024-03-06T03:54:34;101428.00;;;12.60
15079;BMP180;6932;51.438;5.470;2024-03-06T03:57:01;101429.00;;;12.60
15079;BMP180;6932;51.438;5.470;2024-03-06T03:59:27;101429.00;;;12.60
15079;BMP180;6932;51.438;5.470;2024-03-06T04:01:52;101435.00;;;12.50
15079;BMP180;6932;51.438;5.470;2024-03-06T04:04:18;101437.00;;;12.50
15079;BMP180;6932;51.438;5.470;2024-03-06T04:06:44;101435.00;;;12.50
15079;BMP180;6932;51.438;5.470;2024-03-06T04:09:11;101430.00;;;12.50
15079;BMP180;6932;51.438;5.470;2024-03-06T04:11:37;101431.00;;;12.50
15079;BMP180;6932;51.438;5.470;2024-03-06T04:14:04;101432.00;;;12.50
15079;BMP180;6932;51.438;5.470;2024-03-06T04:16:32;101433.00;;;12.50
15079;BMP180;6932;51.438;5.470;2024-03-06T04:18:58;101438.00;;;12.50
15079;BMP180;6932;51.438;5.470;2024-03-06T04:21:24;101431.00;;;12.50
15079;BMP180;6932;51.438;5.470;2024-03-06T04:23:50;101443.00;;;12.50
15079;BMP180;6932;51.438;5.470;2024-03-06T04:26:15;101443.00;;;12.50
15079;BMP180;6932;51.438;5.470;2024-03-06T04:28:43;101442.00;;;12.50
15079;BMP180;6932;51.438;5.470;2024-03-06T04:31:10;101440.00;;;12.40
15079;BMP180;6932;51.438;5.470;2024-03-06T04:33:36;101448.00;;;12.40
15079;BMP180;6932;51.438;5.470;2024-03-06T04:36:03;101454.00;;;12.40
15079;BMP180;6932;51.438;5.470;2024-03-06T04:38:32;101464.00;;;12.40
15079;BMP180;6932;51.438;5.470;2024-03-06T04:40:58;101455.00;;;12.30
15079;BMP180;6932;51.438;5.470;2024-03-06T04:43:24;101464.00;;;12.30
15079;BMP180;6932;51.438;5.470;2024-03-06T04:45:50;101470.00;;;12.30
15079;BMP180;6932;51.438;5.470;2024-03-06T04:48:15;101470.00;;;12.20
15079;BMP180;6932;51.438;5.470;2024-03-06T04:50:41;101481.00;;;12.20
15079;BMP180;6932;51.438;5.470;2024-03-06T04:53:07;101488.00;;;12.20
15079;BMP180;6932;51.438;5.470;2024-03-06T04:55:33;101474.00;;;12.20
15079;BMP180;6932;51.438;5.470;2024-03-06T04:57:58;101487.00;;;12.10
15079;BMP180;6932;51.438;5.470;2024-03-06T05:00:24;101483.00;;;12.10
15079;BMP180;6932;51.438;5.470;2024-03-06T05:02:50;101489.00;;;12.10
15079;BMP180;6932;51.438;5.470;2024-03-06T05:05:16;101496.00;;;12.10
15079;BMP180;6932;51.438;5.470;2024-03-06T05:07:41;101490.00;;;12.10
15079;BMP180;6932;51.438;5.470;2024-03-06T05:10:07;101499.00;;;12.10
15079;BMP180;6932;51.438;5.470;2024-03-06T05:12:34;101500.00;;;12.10
15079;BMP180;6932;51.438;5.470;2024-03-06T05:15:00;101511.00;;;12.10
15079;BMP180;6932;51.438;5.470;2024-03-06T05:17:26;101506.00;;;12.00
15079;BMP180;6932;51.438;5.470;2024-03-06T05:19:52;101512.00;;;12.00
15079;BMP180;6932;51.438;5.470;2024-03-06T05:22:18;101505.00;;;12.00
15079;BMP180;6932;51.438;5.470;2024-03-06T05:24:44;101508.00;;;12.00
15079;BMP180;6932;51.438;5.470;2024-03-06T05:27:10;101504.00;;;12.00
15079;BMP180;6932;51.438;5.470;2024-03-06T05:29:43;101513.00;;;12.00
15079;BMP180;6932;51.438;5.470;2024-03-06T05:32:09;101522.00;;;12.00
15079;BMP180;6932;51.438;5.470;2024-03-06T05:34:35;101523.00;;;11.90
15079;BMP180;6932;51.438;5.470;2024-03-06T05:37:01;101525.00;;;11.90
15079;BMP180;6932;51.438;5.470;2024-03-06T05:39:33;101521.00;;;11.90
15079;BMP180;6932;51.438;5.470;2024-03-06T05:42:06;101533.00;;;11.90
15079;BMP180;6932;51.438;5.470;2024-03-06T05:44:32;101531.00;;;11.90
15079;BMP180;6932;51.438;5.470;2024-03-06T05:47:00;101532.00;;;11.80
15079;BMP180;6932;51.438;5.470;2024-03-06T05:49:26;101527.00;;;11.80
15079;BMP180;6932;51.438;5.470;2024-03-06T05:51:52;101538.00;;;11.80
15079;BMP180;6932;51.438;5.470;2024-03-06T05:54:20;101537.00;;;11.80
15079;BMP180;6932;51.438;5.470;2024-03-06T05:56:50;101551.00;;;11.80
15079;BMP180;6932;51.438;5.470;2024-03-06T05:59:20;101554.00;;;11.80
15079;BMP180;6932;51.438;5.470;2024-03-06T06:01:46;101560.00;;;11.80
15079;BMP180;6932;51.438;5.470;2024-03-06T06:04:13;101570.00;;;11.70
15079;BMP180;6932;51.438;5.470;2024-03-06T06:06:40;101565.00;;;11.80
15079;BMP180;6932;51.438;5.470;2024-03-06T06:09:06;101571.00;;;11.80
15079;BMP180;6932;51.438;5.470;2024-03-06T06:11:33;101573.00;;;11.70
15079;BMP180;6932;51.438;5.470;2024-03-06T06:13:59;101572.00;;;11.70
15079;BMP180;6932;51.438;5.470;2024-03-06T06:16:25;101572.00;;;11.70
15079;BMP180;6932;51.438;5.470;2024-03-06T06:18:51;101573.00;;;11.70
15079;BMP180;6932;51.438;5.470;2024-03-06T06:21:18;101578.00;;;11.70
15079;BMP180;6932;51.438;5.470;2024-03-06T06:23:44;101580.00;;;11.70
15079;BMP180;6932;51.438;5.470;2024-03-06T06:26:10;101583.00;;;11.70
15079;BMP180;6932;51.438;5.470;2024-03-06T06:28:41;101581.00;;;11.70
15079;BMP180;6932;51.438;5.470;2024-03-06T06:31:07;101590.00;;;11.70
15079;BMP180;6932;51.438;5.470;2024-03-06T06:33:33;101591.00;;;11.70
15079;BMP180;6932;51.438;5.470;2024-03-06T06:35:59;101591.00;;;11.70
15079;BMP180;6932;51.438;5.470;2024-03-06T06:38:25;101592.00;;;11.70
15079;BMP180;6932;51.438;5.470;2024-03-06T06:40:50;101598.00;;;11.70
15079;BMP180;6932;51.438;5.470;2024-03-06T06:43:16;101602.00;;;11.70
15079;BMP180;6932;51.438;5.470;2024-03-06T06:45:42;101607.00;;;11.70
15079;BMP180;6932;51.438;5.470;2024-03-06T06:48:07;101605.00;;;11.70
15079;BMP180;6932;51.438;5.470;2024-03-06T06:50:35;101606.00;;;11.80
15079;BMP180;6932;51.438;5.470;2024-03-06T06:53:01;101617.00;;;11.90
15079;BMP180;6932;51.438;5.470;2024-03-06T06:55:27;101617.00;;;12.00
15079;BMP180;6932;51.438;5.470;2024-03-06T06:57:53;101608.00;;;12.10
15079;BMP180;6932;51.438;5.470;2024-03-06T07:00:19;101621.00;;;12.20
15079;BMP180;6932;51.438;5.470;2024-03-06T07:02:47;101632.00;;;12.30
15079;BMP180;6932;51.438;5.470;2024-03-06T07:05:13;101618.00;;;12.40
15079;BMP180;6932;51.438;5.470;2024-03-06T07:07:39;101632.00;;;12.50
15079;BMP180;6932;51.438;5.470;2024-03-06T07:10:05;101641.00;;;12.60
15079;BMP180;6932;51.438;5.470;2024-03-06T07:12:32;101650.00;;;12.70
15079;BMP180;6932;51.438;5.470;2024-03-06T07:14:58;101642.00;;;12.70
15079;BMP180;6932;51.438;5.470;2024-03-06T07:17:25;101643.00;;;12.80
15079;BMP180;6932;51.438;5.470;2024-03-06T07:19:51;101651.00;;;12.90
15079;BMP180;6932;51.438;5.470;2024-03-06T07:22:18;101649.00;;;13.10
15079;BMP180;6932;51.438;5.470;2024-03-06T07:24:44;101654.00;;;13.20
15079;BMP180;6932;51.438;5.470;2024-03-06T07:27:10;101650.00;;;13.30
15079;BMP180;6932;51.438;5.470;2024-03-06T07:29:37;101663.00;;;13.40
15079;BMP180;6932;51.438;5.470;2024-03-06T07:32:03;101665.00;;;13.40
15079;BMP180;6932;51.438;5.470;2024-03-06T07:34:31;101655.00;;;13.40
15079;BMP180;6932;51.438;5.470;2024-03-06T07:36:57;101657.00;;;13.50
15079;BMP180;6932;51.438;5.470;2024-03-06T07:39:27;101666.00;;;13.50
15079;BMP180;6932;51.438;5.470;2024-03-06T07:41:53;101671.00;;;13.50
15079;BMP180;6932;51.438;5.470;2024-03-06T07:44:20;101665.00;;;13.60
15079;BMP180;6932;51.438;5.470;2024-03-06T07:46:46;101672.00;;;13.60
15079;BMP180;6932;51.438;5.470;2024-03-06T07:49:11;101676.00;;;13.70
15079;BMP180;6932;51.438;5.470;2024-03-06T07:51:37;101672.00;;;13.90
15079;BMP180;6932;51.438;5.470;2024-03-06T07:54:03;101676.00;;;13.90
15079;BMP180;6932;51.438;5.470;2024-03-06T07:56:32;101684.00;;;14.10
15079;BMP180;6932;51.438;5.470;2024-03-06T07:59:00;101682.00;;;14.10
15079;BMP180;6932;51.438;5.470;2024-03-06T08:01:26;101683.00;;;14.10
15079;BMP180;6932;51.438;5.470;2024-03-06T08:03:54;101680.00;;;14.10
15079;BMP180;6932;51.438;5.470;2024-03-06T08:06:20;101688.00;;;14.20
15079;BMP180;6932;51.438;5.470;2024-03-06T08:08:46;101688.00;;;14.30
15079;BMP180;6932;51.438;5.470;2024-03-06T08:11:15;101690.00;;;14.50
15079;BMP180;6932;51.438;5.470;2024-03-06T08:13:41;101695.00;;;14.70
15079;BMP180;6932;51.438;5.470;2024-03-06T08:16:07;101705.00;;;14.90
15079;BMP180;6932;51.438;5.470;2024-03-06T08:18:34;101705.00;;;15.00
15079;BMP180;6932;51.438;5.470;2024-03-06T08:21:01;101705.00;;;15.20
15079;BMP180;6932;51.438;5.470;2024-03-06T08:23:28;101707.00;;;15.50
15079;BMP180;6932;51.438;5.470;2024-03-06T08:25:54;101713.00;;;15.70
15079;BMP180;6932;51.438;5.470;2024-03-06T08:28:20;101715.00;;;15.90
15079;BMP180;6932;51.438;5.470;2024-03-06T08:30:46;101717.00;;;16.00
15079;BMP180;6932;51.438;5.470;2024-03-06T08:33:12;101720.00;;;16.20
15079;BMP180;6932;51.438;5.470;2024-03-06T08:35:39;101723.00;;;16.30
15079;BMP180;6932;51.438;5.470;2024-03-06T08:38:05;101720.00;;;16.40
15079;BMP180;6932;51.438;5.470;2024-03-06T08:40:32;101726.00;;;16.40
15079;BMP180;6932;51.438;5.470;2024-03-06T08:42:57;101727.00;;;16.40
15079;BMP180;6932;51.438;5.470;2024-03-06T08:45:24;101732.00;;;16.50
15079;BMP180;6932;51.438;5.470;2024-03-06T08:47:50;101729.00;;;16.50
15079;BMP180;6932;51.438;5.470;2024-03-06T08:50:17;101735.00;;;16.60
15079;BMP180;6932;51.438;5.470;2024-03-06T08:52:43;101742.00;;;16.60
15079;BMP180;6932;51.438;5.470;2024-03-06T08:55:09;101745.00;;;16.70
15079;BMP180;6932;51.438;5.470;2024-03-06T08:57:36;101750.00;;;16.90
15079;BMP180;6932;51.438;5.470;2024-03-06T09:00:04;101742.00;;;17.10
15079;BMP180;6932;51.438;5.470;2024-03-06T09:02:30;101754.00;;;17.20
15079;BMP180;6932;51.438;5.470;2024-03-06T09:04:56;101755.00;;;17.30
15079;BMP180;6932;51.438;5.470;2024-03-06T09:07:22;101745.00;;;17.40
15079;BMP180;6932;51.438;5.470;2024-03-06T09:09:50;101755.00;;;17.40
15079;BMP180;6932;51.438;5.470;2024-03-06T09:12:17;101759.00;;;17.50
15079;BMP180;6932;51.438;5.470;2024-03-06T09:14:43;101759.00;;;17.40
15079;BMP180;6932;51.438;5.470;2024-03-06T09:17:11;101753.00;;;17.40
15079;BMP180;6932;51.438;5.470;2024-03-06T09:19:40;101765.00;;;17.30
15079;BMP180;6932;51.438;5.470;2024-03-06T09:22:06;101766.00;;;17.20
15079;BMP180;6932;51.438;5.470;2024-03-06T09:24:33;101755.00;;;17.10
15079;BMP180;6932;51.438;5.470;2024-03-06T09:27:01;101760.00;;;17.00
15079;BMP180;6932;51.438;5.470;2024-03-06T09:29:27;101765.00;;;16.90
15079;BMP180;6932;51.438;5.470;2024-03-06T09:31:52;101783.00;;;16.80
15079;BMP180;6932;51.438;5.470;2024-03-06T09:34:18;101770.00;;;16.70
15079;BMP180;6932;51.438;5.470;2024-03-06T09:36:49;101774.00;;;16.70
15079;BMP180;6932;51.438;5.470;2024-03-06T09:39:17;101782.00;;;16.80
15079;BMP180;6932;51.438;5.470;2024-03-06T09:41:47;101791.00;;;16.80
15079;BMP180;6932;51.438;5.470;2024-03-06T09:44:14;101788.00;;;16.90
15079;BMP180;6932;51.438;5.470;2024-03-06T09:46:45;101784.00;;;17.00
15079;BMP180;6932;51.438;5.470;2024-03-06T09:49:13;101795.00;;;17.10
15079;BMP180;6932;51.438;5.470;2024-03-06T09:51:48;101796.00;;;17.10
15079;BMP180;6932;51.438;5.470;2024-03-06T09:54:19;101800.00;;;17.30
15079;BMP180;6932;51.438;5.470;2024-03-06T09:56:47;101797.00;;;17.40
15079;BMP180;6932;51.438;5.470;2024-03-06T09:59:14;101807.00;;;17.50
15079;BMP180;6932;51.438;5.470;2024-03-06T10:01:57;101809.00;;;17.50
15079;BMP180;6932;51.438;5.470;2024-03-06T10:04:27;101805.00;;;17.60
15079;BMP180;6932;51.438;5.470;2024-03-06T10:06:58;101803.00;;;17.60
15079;BMP180;6932;51.438;5.470;2024-03-06T10:09:26;101808.00;;;17.70
15079;BMP180;6932;51.438;5.470;2024-03-06T10:11:52;101811.00;;;17.70
15079;BMP180;6932;51.438;5.470;2024-03-06T10:14:19;101808.00;;;17.80
15079;BMP180;6932;51.438;5.470;2024-03-06T10:16:56;101813.00;;;17.80
15079;BMP180;6932;51.438;5.470;2024-03-06T10:19:27;101814.00;;;18.00
15079;BMP180;6932;51.438;5.470;2024-03-06T10:21:56;101814.00;;;18.00
15079;BMP180;6932;51.438;5.470;2024-03-06T10:24:29;101812.00;;;18.00
15079;BMP180;6932;51.438;5.470;2024-03-06T10:26:57;101813.00;;;18.20
15079;BMP180;6932;51.438;5.470;2024-03-06T10:29:26;101811.00;;;18.30
15079;BMP180;6932;51.438;5.470;2024-03-06T10:31:57;101816.00;;;18.50
15079;BMP180;6932;51.438;5.470;2024-03-06T10:34:28;101816.00;;;18.60
15079;BMP180;6932;51.438;5.470;2024-03-06T10:37:03;101811.00;;;18.70
15079;BMP180;6932;51.438;5.470;2024-03-06T10:39:41;101811.00;;;18.80
15079;BMP180;6932;51.438;5.470;2024-03-06T10:42:07;101811.00;;;19.00
15079;BMP180;6932;51.438;5.470;2024-03-06T10:44:34;101819.00;;;19.20
15079;BMP180;6932;51.438;5.470;2024-03-06T10:47:05;101819.00;;;19.40
15079;BMP180;6932;51.438;5.470;2024-03-06T10:49:32;101819.00;;;19.60
15079;BMP180;6932;51.438;5.470;2024-03-06T10:52:04;101820.00;;;19.70
15079;BMP180;6932;51.438;5.470;2024-03-06T10:54:33;101822.00;;;19.90
15079;BMP180;6932;51.438;5.470;2024-03-06T10:57:01;101822.00;;;19.90
15079;BMP180;6932;51.438;5.470;2024-03-06T10:59:29;101820.00;;;20.00
15079;BMP180;6932;51.438;5.470;2024-03-06T11:01:59;101823.00;;;20.00
15079;BMP180;6932;51.438;5.470;2024-03-06T11:04:27;101821.00;;;19.90
15079;BMP180;6932;51.438;5.470;2024-03-06T11:06:58;101812.00;;;19.70
15079;BMP180;6932;51.438;5.470;2024-03-06T11:09:31;101829.00;;;19.60
15079;BMP180;6932;51.438;5.470;2024-03-06T11:11:57;101823.00;;;19.40
15079;BMP180;6932;51.438;5.470;2024-03-06T11:14:24;101820.00;;;19.30
15079;BMP180;6932;51.438;5.470;2024-03-06T11:17:04;101823.00;;;19.10
15079;BMP180;6932;51.438;5.470;2024-03-06T11:28:27;101830.00;;;18.70
15079;BMP180;6932;51.438;5.470;2024-03-06T11:31:10;101835.00;;;18.60
15079;BMP180;6932;51.438;5.470;2024-03-06T11:33:46;101839.00;;;18.60
15079;BMP180;6932;51.438;5.470;2024-03-06T11:39:08;101838.00;;;18.70
15079;BMP180;6932;51.438;5.470;2024-03-06T11:44:15;101841.00;;;18.90
15079;BMP180;6932;51.438;5.470;2024-03-06T11:46:49;101840.00;;;18.90
15079;BMP180;6932;51.438;5.470;2024-03-06T11:49:27;101841.00;;;18.90
15079;BMP180;6932;51.438;5.470;2024-03-06T11:52:04;101842.00;;;18.90
15079;BMP180;6932;51.438;5.470;2024-03-06T11:54:32;101838.00;;;18.80
15079;BMP180;6932;51.438;5.470;2024-03-06T11:57:01;101844.00;;;18.70
15079;BMP180;6932;51.438;5.470;2024-03-06T11:59:36;101844.00;;;18.60
15079;BMP180;6932;51.438;5.470;2024-03-06T12:02:05;101849.00;;;18.50
15079;BMP180;6932;51.438;5.470;2024-03-06T12:04:32;101844.00;;;18.40
15079;BMP180;6932;51.438;5.470;2024-03-06T12:07:03;101846.00;;;18.30
15079;BMP180;6932;51.438;5.470;2024-03-06T12:09:33;101842.00;;;18.20
15079;BMP180;6932;51.438;5.470;2024-03-06T12:11:58;101845.00;;;18.20
15079;BMP180;6932;51.438;5.470;2024-03-06T12:14:25;101846.00;;;18.10
15079;BMP180;6932;51.438;5.470;2024-03-06T12:17:00;101841.00;;;18.10
15079;BMP180;6932;51.438;5.470;2024-03-06T12:19:32;101840.00;;;18.10
15079;BMP180;6932;51.438;5.470;2024-03-06T12:22:04;101849.00;;;18.10
15079;BMP180;6932;51.438;5.470;2024-03-06T12:24:31;101851.00;;;18.10
15079;BMP180;6932;51.438;5.470;2024-03-06T12:27:01;101844.00;;;18.00
15079;BMP180;6932;51.438;5.470;2024-03-06T12:29:30;101851.00;;;18.00
15079;BMP180;6932;51.438;5.470;2024-03-06T12:31:56;101845.00;;;18.00
15079;BMP180;6932;51.438;5.470;2024-03-06T12:34:22;101842.00;;;17.90
15079;BMP180;6932;51.438;5.470;2024-03-06T12:36:48;101846.00;;;17.90
15079;BMP180;6932;51.438;5.470;2024-03-06T12:39:16;101846.00;;;17.90
15079;BMP180;6932;51.438;5.470;2024-03-06T12:41:47;101843.00;;;18.00
15079;BMP180;6932;51.438;5.470;2024-03-06T12:44:13;101844.00;;;18.10
15079;BMP180;6932;51.438;5.470;2024-03-06T12:46:40;101847.00;;;18.20
15079;BMP180;6932;51.438;5.470;2024-03-06T12:49:06;101848.00;;;18.30
15079;BMP180;6932;51.438;5.470;2024-03-06T12:51:32;101840.00;;;18.40
15079;BMP180;6932;51.438;5.470;2024-03-06T12:53:58;101847.00;;;18.50
15079;BMP180;6932;51.438;5.470;2024-03-06T12:56:24;101844.00;;;18.60
15079;BMP180;6932;51.438;5.470;2024-03-06T12:58:53;101843.00;;;18.60
15079;BMP180;6932;51.438;5.470;2024-03-06T13:01:19;101848.00;;;18.70
15079;BMP180;6932;51.438;5.470;2024-03-06T13:03:46;101844.00;;;18.70
15079;BMP180;6932;51.438;5.470;2024-03-06T13:06:12;101847.00;;;18.60
15079;BMP180;6932;51.438;5.470;2024-03-06T13:08:37;101837.00;;;18.60
15079;BMP180;6932;51.438;5.470;2024-03-06T13:11:03;101839.00;;;18.50
15079;BMP180;6932;51.438;5.470;2024-03-06T13:13:29;101832.00;;;18.50
15079;BMP180;6932;51.438;5.470;2024-03-06T13:15:58;101835.00;;;18.60
15079;BMP180;6932;51.438;5.470;2024-03-06T13:18:24;101835.00;;;18.60
15079;BMP180;6932;51.438;5.470;2024-03-06T13:20:51;101838.00;;;18.70
15079;BMP180;6932;51.438;5.470;2024-03-06T13:23:17;101833.00;;;18.70
15079;BMP180;6932;51.438;5.470;2024-03-06T13:25:43;101839.00;;;18.80
15079;BMP180;6932;51.438;5.470;2024-03-06T13:28:12;101846.00;;;18.70
15079;BMP180;6932;51.438;5.470;2024-03-06T13:30:38;101842.00;;;18.70
15079;BMP180;6932;51.438;5.470;2024-03-06T13:33:05;101849.00;;;18.60
15079;BMP180;6932;51.438;5.470;2024-03-06T13:35:31;101844.00;;;18.60
15079;BMP180;6932;51.438;5.470;2024-03-06T13:37:57;101836.00;;;18.50
15079;BMP180;6932;51.438;5.470;2024-03-06T13:40:23;101849.00;;;18.50
15079;BMP180;6932;51.438;5.470;2024-03-06T13:42:49;101851.00;;;18.60
15079;BMP180;6932;51.438;5.470;2024-03-06T13:45:15;101845.00;;;18.60
15079;BMP180;6932;51.438;5.470;2024-03-06T13:47:43;101848.00;;;18.60
15079;BMP180;6932;51.438;5.470;2024-03-06T13:50:15;101849.00;;;18.60
15079;BMP180;6932;51.438;5.470;2024-03-06T13:52:42;101853.00;;;18.60
15079;BMP180;6932;51.438;5.470;2024-03-06T13:55:08;101854.00;;;18.60
15079;BMP180;6932;51.438;5.470;2024-03-06T13:57:37;101852.00;;;18.60
15079;BMP180;6932;51.438;5.470;2024-03-06T14:00:07;101865.00;;;18.50
15079;BMP180;6932;51.438;5.470;2024-03-06T14:02:44;101860.00;;;18.40
15079;BMP180;6932;51.438;5.470;2024-03-06T14:05:11;101857.00;;;18.40
15079;BMP180;6932;51.438;5.470;2024-03-06T14:07:38;101873.00;;;18.30
15079;BMP180;6932;51.438;5.470;2024-03-06T14:10:07;101875.00;;;18.20
15079;BMP180;6932;51.438;5.470;2024-03-06T14:12:34;101873.00;;;18.20
15079;BMP180;6932;51.438;5.470;2024-03-06T14:15:05;101872.00;;;18.10
15079;BMP180;6932;51.438;5.470;2024-03-06T14:17:34;101872.00;;;18.10
15079;BMP180;6932;51.438;5.470;2024-03-06T14:20:00;101862.00;;;18.00
15079;BMP180;6932;51.438;5.470;2024-03-06T14:22:25;101861.00;;;18.00
15079;BMP180;6932;51.438;5.470;2024-03-06T14:24:51;101871.00;;;18.00